• Join FlightAware (Why Join?)
  • Login
  • US Flag 
11:09PM EST


 

Airport Tracker/Info


-or-


 

Live Flight TrackerFlight Track Log ✈ ASQ6041 ✈ 03-Sep-2013 ✈ KDEN - KLNK

Flight Track Log - Related Links

Times and Time Zones

All times are in EDT time to prevent confusion due to time zone crossing. See the ASQ6041 flight status page for this flight to view local times or setup timezone preferences in your user account.

Time Position Orientation Groundspeed Altitude Reporting Facility
EDT Latitude Longitude Course Direction KTS MPH feet Rate Location/Type
12:11PM 39.9219 -104.6797 72° East 203 234 7,500  Level Denver Center
12:13PM 39.9189 -104.4864 91° East 282 325 10,800 1,440 Climbing Denver Center
12:14PM 39.8667 -104.0118 90° East  Level FlightAware Approximate
12:14PM 39.8964 -104.3794 105° East 316 364 12,100  Level Denver Center
12:15PM 39.8667 -103.8805 90° East  Level FlightAware Approximate
12:15PM 39.8939 -104.2486 91° East 339 390 13,400  Level Denver Center
12:16PM 39.8787 -103.7518 72° East  Level FlightAware Approximate
12:16PM 39.8914 -104.1181 91° East 360 414 14,400  Level Denver Center
12:17PM 39.8883 -103.9711 92° East 379 436 15,900 1,200 Climbing Denver Center
12:18PM 39.8847 -103.8325 92° East 384 442 16,900 960 Climbing Denver Center
12:19PM 39.8869 -103.6886 89° East 391 450 17,900 1,200 Climbing Denver Center
12:20PM 39.9050 -103.5489 80° East 390 449 19,400 1,500 Climbing Denver Center
12:21PM 39.9211 -103.4094 81° East 391 450 21,000 1,440 Climbing Denver Center
12:22PM 39.9353 -103.2708 82° East 387 445 22,400 1,320 Climbing Denver Center
12:23PM 39.9544 -103.1058 81° East 385 443 23,800 1,140 Climbing Denver Center
12:24PM 39.9706 -102.9661 81° East 390 449 24,800 960 Climbing Denver Center
12:25PM 39.9917 -102.8258 79° East 395 455 25,800 1,140 Climbing Denver Center
12:26PM 40.0172 -102.6764 77° East 393 452 27,200 1,140 Climbing Denver Center
12:27PM 40.0394 -102.5425 78° East 394 453 28,200 1,140 Climbing Denver Center
12:28PM 40.0669 -102.3864 77° East 396 456 29,600 1,140 Climbing Denver Center
12:29PM 40.0886 -102.2531 78° East 393 452 30,600 660 Climbing Denver Center
12:30PM 40.1144 -102.0925 78° East 405 466 31,000 180 Climbing Denver Center
12:31PM 40.1392 -101.9456 78° East 430 495 31,000  Level Denver Center
12:32PM 40.1672 -101.7639 79° East 456 525 31,000  Level Denver Center
12:33PM 40.1928 -101.6047 78° East 467 537 31,000  Level Denver Center
12:34PM 40.2225 -101.4144 78° East 478 550 31,000  Level Denver Center
12:35PM 40.2489 -101.2497 78° East 482 555 31,000  Level Denver Center
12:36PM 40.2769 -101.0558 79° East 487 560 31,000 60 Level Denver Center
12:37PM 40.3033 -100.8900 78° East 489 563 31,200 720 Climbing Denver Center
12:38PM 40.3308 -100.7031 79° East 475 547 32,500 840 Climbing Denver Center
12:39PM 40.3539 -100.5458 79° East 465 535 33,000 240 Climbing Denver Center
12:41PM 40.3822 -100.3606 79° East 467 537 33,000  Level Denver Center
12:42PM 40.4047 -100.1981 80° East 475 547 33,000  Level Denver Center
12:43PM 40.4328 -100.0058 79° East 481 554 33,000  Level Denver Center
12:44PM 40.4536 -99.8569 80° East 480 552 33,000  Level Denver Center
12:45PM 40.4833 -99.6503 79° East 481 554 33,000  Level Denver Center
12:46PM 40.5081 -99.4789 79° East 480 552 33,000  Level Denver Center
12:47PM 40.5308 -99.3064 80° East 481 554 33,000  Level Denver Center
12:48PM 40.5544 -99.1361 80° East 477 549 33,000  Level Denver Center
12:49PM 40.5722 -99.0017 80° East 478 550 33,000  Level Minneapolis Center
12:50PM 40.5989 -98.7978 80° East 476 548 33,000  Level Minneapolis Center
12:51PM 40.6211 -98.6275 80° East 476 548 33,000 -300 Level Minneapolis Center
12:52PM 40.6433 -98.4569 80° East 477 549 32,400 -1,620 Descending Minneapolis Center
12:53PM 40.6653 -98.2906 80° East 470 541 29,700 -2,760 Descending Minneapolis Center
12:54PM 40.6864 -98.1303 80° East 456 525 26,800 -2,760 Descending Minneapolis Center
12:55PM 40.7094 -97.9394 81° East 445 512 24,100 -2,520 Descending Minneapolis Center
12:56PM 40.7294 -97.7764 81° East 449 517 21,700 -2,460 Descending Minneapolis Center
12:57PM 40.7492 -97.6194 81° East 441 507 19,100 -2,460 Descending Minneapolis Center
12:58PM 40.7669 -97.4681 81° East 426 490 16,700 -2,400 Descending Minneapolis Center
12:59PM 40.7850 -97.3136 81° East 416 479 14,100 -2,100 Descending Minneapolis Center
01:00PM 40.8028 -97.1794 80° East 382 440 12,400 -1,800 Descending Minneapolis Center
01:01PM 40.8150 -97.0683 82° East 321 369 10,500 -2,700 Descending Minneapolis Center
01:02PM 40.8292 -96.9442 81° East 290 334 6,900 -2,880 Descending Minneapolis Center
01:03PM 40.8817 -96.8797 43° Northeast 266 306 4,600 -1,500 Descending Minneapolis Center
01:04PM 40.9300 -96.8139 46° Northeast 230 265 3,700 -960 Descending Minneapolis Center
01:05PM 40.9383 -96.7639 78° East 210 242 2,700 -900 Descending Minneapolis Center
01:06PM 40.8806 -96.7581 176° South 136 157 1,900 -540 Descending Minneapolis Center
01:07PM 40.8581 -96.7631 190° South 150 173 1,700 -240 Descending Minneapolis Center